createdAt,value
2022-08-31T00:05:00.909Z,100667.16
2022-08-31T00:10:01.745Z,100664.59
2022-08-31T00:15:02.358Z,100664.81
2022-08-31T00:20:06.843Z,100657.84
2022-08-31T00:25:08.924Z,100654.47
2022-08-31T00:30:12.190Z,100661.66
2022-08-31T00:35:14.632Z,100661.78
2022-08-31T00:40:15.553Z,100662.81
2022-08-31T00:45:17.251Z,100671.53
2022-08-31T00:50:21.191Z,100677.06
2022-08-31T00:55:25.589Z,100672.88
2022-08-31T01:00:28.169Z,100676.38
2022-08-31T01:05:31.561Z,100673.00
2022-08-31T01:10:37.457Z,100677.09
2022-08-31T01:15:39.031Z,100678.22
2022-08-31T01:20:52.303Z,100678.56
2022-08-31T01:25:56.547Z,100678.38
2022-08-31T01:31:04.120Z,100683.69
2022-08-31T01:36:07.611Z,100681.13
2022-08-31T01:41:09.911Z,100688.16
2022-08-31T01:46:14.929Z,100680.31
2022-08-31T01:51:17.980Z,100684.69
2022-08-31T01:56:23.493Z,100684.78
2022-08-31T02:01:32.648Z,100688.16
2022-08-31T02:06:35.623Z,100680.50
2022-08-31T02:11:38.398Z,100673.69
2022-08-31T02:16:39.679Z,100670.19
2022-08-31T02:21:41.533Z,100674.56
2022-08-31T02:26:43.502Z,100667.84
2022-08-31T02:31:44.180Z,100657.56
2022-08-31T02:36:46.335Z,100654.16
2022-08-31T02:41:48.498Z,100655.25
2022-08-31T02:46:49.189Z,100656.06
2022-08-31T02:52:04.898Z,100655.16
2022-08-31T02:57:07.056Z,100656.19
2022-08-31T03:02:07.833Z,100653.69
2022-08-31T03:07:11.569Z,100653.81
2022-08-31T03:12:13.719Z,100653.97
2022-08-31T03:17:14.354Z,100655.75
2022-08-31T03:22:15.602Z,100651.38
2022-08-31T03:27:19.368Z,100647.91
2022-08-31T03:32:20.879Z,100654.75
2022-08-31T03:37:25.055Z,100654.75
2022-08-31T03:42:32.117Z,100650.44
2022-08-31T03:47:33.506Z,100648.78
2022-08-31T03:52:34.740Z,100651.34
2022-08-31T03:57:43.839Z,100662.78
2022-08-31T04:02:44.948Z,100663.47
2022-08-31T04:08:04.014Z,100666.97
2022-08-31T04:13:20.786Z,100670.53
2022-08-31T04:18:41.005Z,100671.44
2022-08-31T04:23:41.796Z,100661.28
2022-08-31T04:28:44.793Z,100673.34
2022-08-31T04:33:45.750Z,100676.69
2022-08-31T04:38:48.973Z,100684.28
2022-08-31T04:43:53.180Z,100686.00
2022-08-31T04:48:54.246Z,100696.38
2022-08-31T04:53:55.639Z,100691.16
2022-08-31T04:59:00.346Z,100705.56
2022-08-31T05:04:03.450Z,100715.78
2022-08-31T05:09:06.686Z,100704.38
2022-08-31T05:14:09.592Z,100709.34
2022-08-31T05:19:14.519Z,100721.94
2022-08-31T05:24:17.406Z,100715.81
2022-08-31T05:29:22.501Z,100719.84
2022-08-31T05:34:26.838Z,100722.97
2022-08-31T05:39:27.583Z,100716.84
2022-08-31T05:44:30.790Z,100725.88
2022-08-31T05:49:32.253Z,100727.19
2022-08-31T05:54:35.474Z,100730.13
2022-08-31T05:59:39.881Z,100739.03
2022-08-31T06:04:41.770Z,100740.56
2022-08-31T06:09:42.751Z,100746.50
2022-08-31T06:14:47.996Z,100741.88
2022-08-31T06:19:52.436Z,100746.25
2022-08-31T06:24:54.753Z,100757.38
2022-08-31T06:29:57.973Z,100745.72
2022-08-31T06:34:58.830Z,100756.31
2022-08-31T06:40:26.606Z,100757.84
2022-08-31T06:46:01.015Z,100770.31
2022-08-31T06:51:20.422Z,100771.16
2022-08-31T06:56:25.174Z,100766.25
2022-08-31T07:01:45.746Z,100773.31
2022-08-31T07:06:53.514Z,100774.31
2022-08-31T07:11:55.047Z,100785.63
2022-08-31T07:16:58.616Z,100780.28
2022-08-31T07:22:02.143Z,100789.75
2022-08-31T07:27:05.319Z,100780.44
2022-08-31T07:32:17.368Z,100780.31
2022-08-31T07:37:36.251Z,100781.34
2022-08-31T07:42:43.326Z,100779.16
2022-08-31T07:47:47.082Z,100786.75
2022-08-31T07:52:51.774Z,100783.75
2022-08-31T07:58:13.428Z,100781.91
2022-08-31T08:03:15.609Z,100777.66
2022-08-31T08:08:35.435Z,100775.09
2022-08-31T08:14:12.159Z,100781.44
2022-08-31T08:19:25.713Z,100777.66
2022-08-31T08:24:29.360Z,100780.81
2022-08-31T08:29:39.231Z,100784.34
2022-08-31T08:34:43.721Z,100785.63
2022-08-31T08:39:45.305Z,100793.13
2022-08-31T08:44:50.863Z,100794.22
2022-08-31T08:49:55.307Z,100797.91
2022-08-31T08:55:03.036Z,100796.84
2022-08-31T09:00:10.900Z,100790.22
2022-08-31T09:05:48.465Z,100794.25
2022-08-31T09:11:17.556Z,100792.53
2022-08-31T09:16:28.736Z,100789.81
2022-08-31T09:21:37.066Z,100793.28
2022-08-31T09:26:54.312Z,100788.16
2022-08-31T09:32:09.984Z,100797.25
2022-08-31T09:37:16.198Z,100792.31
2022-08-31T09:42:29.174Z,100791.75
2022-08-31T09:47:48.651Z,100791.34
2022-08-31T09:53:08.123Z,100785.84
2022-08-31T09:58:11.519Z,100791.22
2022-08-31T10:03:20.996Z,100788.09
2022-08-31T10:08:33.674Z,100773.22
2022-08-31T10:13:39.900Z,100777.16
2022-08-31T10:18:52.233Z,100772.63
2022-08-31T10:24:01.482Z,100769.84
2022-08-31T10:29:08.007Z,100775.81
2022-08-31T10:34:31.152Z,100780.69
2022-08-31T10:39:38.312Z,100775.66
2022-08-31T10:44:56.967Z,100766.16
2022-08-31T10:50:00.784Z,100764.47
2022-08-31T10:55:13.074Z,100762.88
2022-08-31T11:00:31.934Z,100765.94
2022-08-31T11:05:37.324Z,100781.34
2022-08-31T11:10:49.978Z,100773.06
2022-08-31T11:16:03.577Z,100767.78
2022-08-31T11:21:20.195Z,100761.72
2022-08-31T11:26:40.405Z,100760.53
2022-08-31T11:31:42.467Z,100762.91
2022-08-31T11:36:51.259Z,100757.09
2022-08-31T11:41:54.463Z,100745.63
2022-08-31T11:47:07.694Z,100747.69
2022-08-31T11:52:29.117Z,100749.00
2022-08-31T11:57:37.632Z,100755.22
2022-08-31T12:02:45.439Z,100747.22
2022-08-31T12:07:48.432Z,100740.94
2022-08-31T12:13:03.412Z,100740.41
2022-08-31T12:18:17.340Z,100733.06
2022-08-31T12:23:36.473Z,100734.53
2022-08-31T12:28:55.868Z,100729.94
2022-08-31T12:34:02.501Z,100730.88
2022-08-31T12:39:09.817Z,100736.19
2022-08-31T12:44:14.309Z,100735.63
2022-08-31T12:49:39.203Z,100725.53
2022-08-31T12:55:09.215Z,100726.91
2022-08-31T13:00:17.853Z,100734.81
2022-08-31T13:05:22.315Z,100728.69
2022-08-31T13:10:30.253Z,100727.06
2022-08-31T13:15:39.362Z,100722.47
2022-08-31T13:20:43.436Z,100716.84
2022-08-31T13:25:48.409Z,100710.69
2022-08-31T13:31:03.122Z,100714.16
2022-08-31T13:36:09.657Z,100715.00
2022-08-31T13:41:18.247Z,100708.84
2022-08-31T13:46:37.681Z,100708.44
2022-08-31T13:51:46.915Z,100695.09
2022-08-31T13:56:58.696Z,100703.03
2022-08-31T14:02:03.105Z,100702.53
2022-08-31T14:07:04.172Z,100694.63
2022-08-31T14:12:05.400Z,100699.31
2022-08-31T14:17:08.892Z,100700.47
2022-08-31T14:22:17.999Z,100700.84
2022-08-31T14:27:18.678Z,100704.19
2022-08-31T14:32:22.709Z,100681.72
2022-08-31T14:37:28.979Z,100689.44
2022-08-31T14:42:34.925Z,100684.53
2022-08-31T14:47:44.187Z,100687.16
2022-08-31T14:52:49.509Z,100685.81
2022-08-31T14:57:58.314Z,100689.09
2022-08-31T15:03:02.514Z,100686.69
2022-08-31T15:08:03.382Z,100683.97
2022-08-31T15:13:08.679Z,100687.47
2022-08-31T15:18:14.506Z,100685.72
2022-08-31T15:23:16.084Z,100690.63
2022-08-31T15:28:17.654Z,100684.84
2022-08-31T15:33:21.562Z,100684.03
2022-08-31T15:38:26.039Z,100690.16
2022-08-31T15:43:26.706Z,100680.16
2022-08-31T15:48:45.250Z,100676.28
2022-08-31T15:54:00.848Z,100674.03
2022-08-31T15:59:10.205Z,100674.31
2022-08-31T16:04:16.252Z,100674.16
2022-08-31T16:09:18.087Z,100672.25
2022-08-31T16:14:20.309Z,100668.66
2022-08-31T16:19:35.176Z,100664.81
2022-08-31T16:24:38.122Z,100669.22
2022-08-31T16:29:39.185Z,100672.94
2022-08-31T16:34:42.676Z,100668.75
2022-08-31T16:39:46.926Z,100669.69
2022-08-31T16:44:48.171Z,100667.50
2022-08-31T16:49:51.688Z,100665.03
2022-08-31T16:54:53.232Z,100660.16
2022-08-31T16:59:54.469Z,100661.53
2022-08-31T17:05:00.587Z,100654.91
2022-08-31T17:10:07.211Z,100655.28
2022-08-31T17:15:12.191Z,100666.31
2022-08-31T17:20:14.569Z,100666.69
2022-08-31T17:25:15.262Z,100675.75
2022-08-31T17:30:16.309Z,100678.03
2022-08-31T17:35:19.136Z,100681.75
2022-08-31T17:40:20.399Z,100685.47
2022-08-31T17:45:21.640Z,100686.63
2022-08-31T17:50:23.636Z,100691.25
2022-08-31T17:55:24.323Z,100684.69
2022-08-31T18:00:25.182Z,100698.97
2022-08-31T18:05:27.760Z,100696.69
2022-08-31T18:10:28.534Z,100698.50
2022-08-31T18:15:31.989Z,100705.06
2022-08-31T18:20:33.965Z,100715.59
2022-08-31T18:25:35.947Z,100719.22
2022-08-31T18:30:41.258Z,100711.66
2022-08-31T18:35:48.771Z,100723.28
2022-08-31T18:41:06.982Z,100723.47
2022-08-31T18:46:07.933Z,100723.34
2022-08-31T18:51:14.468Z,100726.94
2022-08-31T18:56:18.220Z,100726.38
2022-08-31T19:01:21.958Z,100727.59
2022-08-31T19:06:26.276Z,100722.38
2022-08-31T19:11:28.113Z,100721.75
2022-08-31T19:16:30.191Z,100727.06
2022-08-31T19:21:35.322Z,100735.44
2022-08-31T19:26:39.351Z,100727.78
2022-08-31T19:31:42.745Z,100728.75
2022-08-31T19:36:49.414Z,100715.94
2022-08-31T19:41:53.896Z,100724.50
2022-08-31T19:46:56.548Z,100715.78
2022-08-31T19:52:03.725Z,100719.91
2022-08-31T19:57:07.066Z,100716.34
2022-08-31T20:02:09.147Z,100717.44
2022-08-31T20:07:14.323Z,100716.78
2022-08-31T20:12:14.994Z,100714.53
2022-08-31T20:17:15.653Z,100710.56
2022-08-31T20:22:18.264Z,100711.09
2022-08-31T20:27:19.586Z,100714.13
2022-08-31T20:32:21.015Z,100718.16
2022-08-31T20:37:24.656Z,100712.03
2022-08-31T20:42:27.336Z,100707.09
2022-08-31T20:47:45.720Z,100715.47
2022-08-31T20:52:47.709Z,100720.28
2022-08-31T20:57:49.247Z,100711.91
2022-08-31T21:02:50.075Z,100724.63
2022-08-31T21:07:53.287Z,100729.59
2022-08-31T21:13:00.117Z,100722.38
2022-08-31T21:18:01.311Z,100723.44
2022-08-31T21:23:03.278Z,100722.25
2022-08-31T21:28:05.108Z,100727.63
2022-08-31T21:33:05.714Z,100717.88
2022-08-31T21:38:12.227Z,100721.50
2022-08-31T21:43:13.061Z,100723.81
2022-08-31T21:48:13.737Z,100727.88
2022-08-31T21:53:15.724Z,100725.63
2022-08-31T21:58:16.352Z,100716.81
2022-08-31T22:03:19.535Z,100732.66
2022-08-31T22:08:23.999Z,100724.16
2022-08-31T22:13:24.697Z,100730.97
2022-08-31T22:18:59.554Z,100733.75
2022-08-31T22:23:50.156Z,100741.88
2022-08-31T22:28:50.959Z,100741.47
2022-08-31T22:33:53.170Z,100736.44
2022-08-31T22:38:56.092Z,100730.47
2022-08-31T22:43:57.105Z,100740.25
2022-08-31T22:48:58.326Z,100733.41
2022-08-31T22:54:00.920Z,100732.75
2022-08-31T22:59:04.862Z,100738.94
2022-08-31T23:04:07.471Z,100735.56
2022-08-31T23:09:11.483Z,100730.50
2022-08-31T23:14:12.236Z,100728.03
2022-08-31T23:19:15.192Z,100732.56
2022-08-31T23:24:21.084Z,100740.50
2022-08-31T23:29:21.758Z,100731.09
2022-08-31T23:34:24.140Z,100728.56
2022-08-31T23:39:26.238Z,100728.69
2022-08-31T23:44:27.308Z,100721.94
2022-08-31T23:49:27.914Z,100727.22
2022-08-31T23:54:30.235Z,100722.88
2022-08-31T23:59:31.591Z,100728.03
